createdAt,value
2019-04-04T00:00:28.498Z,69.69
2019-04-04T00:02:57.008Z,69.89
2019-04-04T00:05:26.256Z,70.60
2019-04-04T00:07:54.813Z,70.85
2019-04-04T00:10:23.277Z,71.35
2019-04-04T00:12:51.705Z,71.61
2019-04-04T00:15:20.258Z,71.87
2019-04-04T00:17:49.281Z,71.66
2019-04-04T00:20:17.743Z,72.08
2019-04-04T00:22:46.216Z,72.06
2019-04-04T00:25:14.683Z,71.26
2019-04-04T00:27:43.947Z,71.42
2019-04-04T00:30:13.349Z,71.60
2019-04-04T00:32:41.828Z,71.18
2019-04-04T00:35:10.319Z,71.16
2019-04-04T00:37:41.030Z,71.26
2019-04-04T00:40:11.167Z,71.04
2019-04-04T00:42:39.248Z,70.60
2019-04-04T00:45:07.758Z,70.85
2019-04-04T00:47:36.243Z,70.98
2019-04-04T00:50:06.652Z,71.00
2019-04-04T00:52:35.484Z,70.93
2019-04-04T00:55:04.634Z,71.22
2019-04-04T00:57:33.381Z,71.46
2019-04-04T01:00:01.871Z,71.44
2019-04-04T01:02:30.363Z,71.36
2019-04-04T01:05:01.243Z,71.17
2019-04-04T01:07:29.359Z,71.30
2019-04-04T01:09:57.874Z,71.33
2019-04-04T01:12:26.341Z,71.55
2019-04-04T01:14:55.234Z,71.38
2019-04-04T01:17:23.712Z,71.21
2019-04-04T01:19:52.193Z,71.31
2019-04-04T01:22:20.637Z,71.26
2019-04-04T01:24:49.111Z,71.23
2019-04-04T01:27:17.578Z,71.16
2019-04-04T01:29:46.075Z,71.22
2019-04-04T01:32:15.116Z,71.36
2019-04-04T01:34:44.721Z,71.81
2019-04-04T01:37:13.218Z,71.76
2019-04-04T01:39:41.686Z,71.69
2019-04-04T01:42:10.163Z,71.69
2019-04-04T01:44:40.168Z,71.59
2019-04-04T01:47:09.114Z,71.49
2019-04-04T01:49:37.604Z,71.44
2019-04-04T01:52:06.079Z,71.44
2019-04-04T01:54:34.559Z,71.29
2019-04-04T01:57:03.047Z,71.38
2019-04-04T01:59:31.531Z,71.25
2019-04-04T02:02:00.081Z,71.18
2019-04-04T02:04:28.547Z,71.32
2019-04-04T02:06:58.804Z,71.20
2019-04-04T02:09:27.212Z,71.32
2019-04-04T02:11:55.669Z,71.35
2019-04-04T02:14:24.175Z,71.33
2019-04-04T02:16:52.640Z,71.46
2019-04-04T02:19:22.899Z,71.47
2019-04-04T02:21:51.357Z,71.76
2019-04-04T02:24:19.804Z,71.61
2019-04-04T02:26:48.383Z,71.71
2019-04-04T02:29:16.908Z,71.61
2019-04-04T02:31:53.010Z,71.47
2019-04-04T02:34:19.192Z,71.39
2019-04-04T02:36:49.367Z,71.45
2019-04-04T02:39:18.226Z,71.39
2019-04-04T02:41:48.364Z,71.39
2019-04-04T02:44:16.927Z,71.46
2019-04-04T02:46:45.801Z,71.43
2019-04-04T02:49:14.469Z,71.43
2019-04-04T02:51:42.985Z,71.43
2019-04-04T02:54:11.524Z,71.43
2019-04-04T02:56:40.026Z,71.50
2019-04-04T02:59:08.475Z,71.55
2019-04-04T03:01:36.960Z,71.91
2019-04-04T03:04:05.485Z,71.96
2019-04-04T03:06:33.984Z,71.79
2019-04-04T03:09:02.451Z,71.65
2019-04-04T03:11:31.204Z,71.59
2019-04-04T03:14:03.373Z,71.51
2019-04-04T03:16:29.939Z,71.61
2019-04-04T03:18:58.386Z,72.52
2019-04-04T03:21:26.873Z,72.49
2019-04-04T03:23:55.412Z,72.12
2019-04-04T03:26:23.906Z,71.79
2019-04-04T03:28:52.362Z,71.54
2019-04-04T03:31:20.906Z,71.56
2019-04-04T03:33:49.381Z,71.48
2019-04-04T03:36:17.868Z,71.58
2019-04-04T03:38:47.341Z,72.26
2019-04-04T03:41:16.376Z,72.19
2019-04-04T03:43:48.014Z,71.77
2019-04-04T03:46:15.009Z,71.56
2019-04-04T03:48:43.493Z,71.42
2019-04-04T03:51:12.236Z,71.34
2019-04-04T03:53:48.732Z,71.29
2019-04-04T03:56:14.594Z,71.21
2019-04-04T03:58:43.044Z,71.18
2019-04-04T04:01:13.171Z,71.36
2019-04-04T04:03:41.824Z,71.42
2019-04-04T04:06:10.335Z,71.58
2019-04-04T04:08:38.748Z,71.56
2019-04-04T04:11:07.230Z,71.54
2019-04-04T04:13:35.704Z,71.59
2019-04-04T04:16:04.218Z,71.73
2019-04-04T04:18:32.643Z,71.63
2019-04-04T04:21:01.137Z,71.54
2019-04-04T04:23:29.980Z,71.48
2019-04-04T04:25:58.454Z,71.39
2019-04-04T04:28:26.934Z,71.40
2019-04-04T04:30:55.719Z,71.33
2019-04-04T04:33:24.173Z,71.39
2019-04-04T04:35:52.649Z,71.38
2019-04-04T04:38:25.623Z,71.41
2019-04-04T04:40:51.590Z,81.52
2019-04-04T04:43:20.078Z,65.68
2019-04-04T04:45:48.568Z,62.49
2019-04-04T04:48:17.069Z,65.48
2019-04-04T04:50:45.543Z,68.17
2019-04-04T04:53:14.040Z,69.73
2019-04-04T04:55:42.498Z,70.56
2019-04-04T04:58:11.260Z,71.09
2019-04-04T05:00:39.790Z,71.24
2019-04-04T05:03:08.291Z,71.30
2019-04-04T05:05:36.758Z,71.25
2019-04-04T05:08:05.241Z,71.73
2019-04-04T05:10:33.693Z,72.68
2019-04-04T05:13:02.177Z,73.08
2019-04-04T05:15:32.376Z,72.79
2019-04-04T05:18:00.987Z,72.91
2019-04-04T05:20:29.924Z,73.04
2019-04-04T05:22:58.736Z,72.58
2019-04-04T05:25:30.864Z,72.09
2019-04-04T05:27:57.405Z,71.96
2019-04-04T05:30:25.892Z,72.07
2019-04-04T05:32:56.496Z,71.99
2019-04-04T05:35:24.894Z,71.89
2019-04-04T05:37:53.369Z,71.72
2019-04-04T05:40:23.567Z,71.72
2019-04-04T05:42:52.164Z,71.75
2019-04-04T05:45:20.665Z,71.49
2019-04-04T05:47:49.137Z,71.21
2019-04-04T05:50:17.618Z,71.15
2019-04-04T05:52:46.153Z,71.49
2019-04-04T05:55:14.596Z,71.42
2019-04-04T05:57:43.062Z,71.36
2019-04-04T06:00:14.255Z,71.42
2019-04-04T06:02:43.185Z,71.45
2019-04-04T06:05:12.636Z,71.48
2019-04-04T06:07:41.119Z,71.41
2019-04-04T06:10:12.010Z,71.35
2019-04-04T06:12:39.845Z,71.32
2019-04-04T06:15:08.346Z,71.23
2019-04-04T06:17:38.755Z,71.14
2019-04-04T06:20:07.655Z,71.16
2019-04-04T06:22:36.127Z,71.17
2019-04-04T06:25:05.272Z,71.27
2019-04-04T06:27:33.798Z,71.28
2019-04-04T06:30:02.281Z,71.27
2019-04-04T06:32:31.022Z,71.42
2019-04-04T06:35:00.092Z,71.41
2019-04-04T06:37:28.569Z,71.44
2019-04-04T06:39:58.842Z,71.30
2019-04-04T06:42:27.530Z,71.27
2019-04-04T06:44:56.030Z,71.07
2019-04-04T06:47:25.624Z,70.97
2019-04-04T06:49:54.749Z,70.96
2019-04-04T06:52:23.583Z,71.04
2019-04-04T06:54:52.108Z,70.92
2019-04-04T06:57:20.588Z,71.04
2019-04-04T06:59:51.096Z,70.91
2019-04-04T07:02:19.555Z,70.72
2019-04-04T07:04:48.054Z,70.62
2019-04-04T07:07:16.569Z,70.79
2019-04-04T07:09:45.059Z,70.79
2019-04-04T07:12:22.247Z,70.83
2019-04-04T07:14:45.867Z,70.72
2019-04-04T07:17:16.294Z,70.51
2019-04-04T07:19:46.263Z,71.01
2019-04-04T07:22:14.619Z,70.74
2019-04-04T07:24:43.117Z,70.63
2019-04-04T07:27:11.616Z,70.26
2019-04-04T07:29:40.465Z,70.23
2019-04-04T07:32:10.103Z,70.33
2019-04-04T07:34:38.635Z,70.09
2019-04-04T07:37:07.099Z,70.27
2019-04-04T07:39:35.575Z,69.97
2019-04-04T07:42:04.076Z,70.01
2019-04-04T07:44:32.540Z,69.84
2019-04-04T07:47:01.050Z,69.69
2019-04-04T07:49:29.552Z,69.46
2019-04-04T07:51:58.004Z,69.30
2019-04-04T07:54:26.799Z,69.37
2019-04-04T07:56:55.325Z,69.25
2019-04-04T07:59:23.808Z,69.11
2019-04-04T08:01:52.269Z,69.15
2019-04-04T08:04:20.746Z,68.91
2019-04-04T08:06:49.233Z,68.56
2019-04-04T08:09:17.705Z,68.63
2019-04-04T08:11:46.191Z,68.49
2019-04-04T08:14:14.738Z,68.30
2019-04-04T08:16:43.221Z,68.09
2019-04-04T08:19:12.315Z,67.96
2019-04-04T08:21:40.798Z,67.84
2019-04-04T08:24:09.287Z,67.98
2019-04-04T08:26:37.787Z,67.88
2019-04-04T08:29:06.294Z,67.80
2019-04-04T08:31:35.023Z,67.62
2019-04-04T08:34:03.487Z,67.52
2019-04-04T08:36:31.970Z,67.71
2019-04-04T08:39:00.437Z,67.73
2019-04-04T08:41:28.897Z,68.08
2019-04-04T08:43:57.363Z,67.73
2019-04-04T08:46:25.855Z,67.78
2019-04-04T08:48:54.400Z,67.49
2019-04-04T08:51:23.306Z,67.34
2019-04-04T08:53:51.757Z,67.25
2019-04-04T08:56:20.234Z,66.68
2019-04-04T08:58:51.582Z,66.31
2019-04-04T09:01:18.919Z,66.42
2019-04-04T09:03:47.401Z,66.28
2019-04-04T09:06:15.849Z,66.69
2019-04-04T09:08:44.321Z,66.73
2019-04-04T09:11:12.797Z,66.83
2019-04-04T09:13:41.298Z,66.85
2019-04-04T09:16:09.782Z,67.19
2019-04-04T09:18:38.521Z,67.21
2019-04-04T09:21:07.322Z,67.37
2019-04-04T09:23:35.813Z,67.33
2019-04-04T09:26:05.726Z,67.26
2019-04-04T09:28:34.601Z,67.52
2019-04-04T09:31:03.088Z,67.36
2019-04-04T09:33:31.543Z,67.32
2019-04-04T09:36:00.077Z,67.07
2019-04-04T09:38:29.254Z,67.18
2019-04-04T09:40:57.826Z,67.04
2019-04-04T09:43:26.300Z,67.25
2019-04-04T09:45:54.753Z,67.06
2019-04-04T09:48:23.251Z,66.93
2019-04-04T09:50:51.709Z,66.67
2019-04-04T09:53:20.202Z,66.52
2019-04-04T09:55:48.689Z,66.60
2019-04-04T09:58:17.185Z,66.95
2019-04-04T10:00:47.626Z,66.90
2019-04-04T10:03:16.100Z,66.97
2019-04-04T10:05:44.559Z,66.77
2019-04-04T10:08:13.383Z,66.77
2019-04-04T10:10:41.897Z,66.54
2019-04-04T10:13:10.380Z,66.67
2019-04-04T10:15:38.865Z,66.86
2019-04-04T10:18:07.438Z,66.86
2019-04-04T10:20:36.003Z,66.66
2019-04-04T10:23:04.455Z,66.51
2019-04-04T10:25:32.942Z,66.47
2019-04-04T10:28:01.460Z,66.36
2019-04-04T10:30:30.156Z,66.37
2019-04-04T10:32:58.637Z,66.66
2019-04-04T10:35:27.119Z,66.63
2019-04-04T10:37:55.633Z,66.53
2019-04-04T10:40:24.061Z,66.66
2019-04-04T10:42:52.612Z,66.62
2019-04-04T10:45:21.089Z,66.61
2019-04-04T10:47:49.580Z,66.57
2019-04-04T10:50:18.062Z,66.59
2019-04-04T10:52:47.267Z,66.68
2019-04-04T10:55:15.725Z,66.41
2019-04-04T10:57:44.199Z,66.24
2019-04-04T11:00:12.665Z,66.40
2019-04-04T11:02:41.462Z,66.26
2019-04-04T11:05:10.253Z,66.23
2019-04-04T11:07:38.750Z,66.18
2019-04-04T11:10:07.241Z,66.08
2019-04-04T11:12:35.749Z,66.24
2019-04-04T11:15:04.563Z,65.96
2019-04-04T11:17:33.039Z,65.89
2019-04-04T11:20:01.523Z,65.85
2019-04-04T11:22:30.014Z,65.56
2019-04-04T11:24:58.503Z,65.53
2019-04-04T11:27:27.343Z,65.54
2019-04-04T11:29:55.794Z,65.48
2019-04-04T11:32:24.278Z,65.51
2019-04-04T11:34:53.654Z,65.45
2019-04-04T11:37:22.387Z,65.34
2019-04-04T11:39:54.800Z,65.47
2019-04-04T11:42:21.075Z,65.72
2019-04-04T11:44:49.763Z,65.45
2019-04-04T11:47:18.871Z,65.27
2019-04-04T11:49:47.380Z,65.35
2019-04-04T11:52:15.905Z,65.44
2019-04-04T11:55:00.730Z,65.40
2019-04-04T11:57:29.298Z,65.23
2019-04-04T11:59:57.793Z,65.09
2019-04-04T12:02:28.115Z,65.08
2019-04-04T12:04:57.870Z,65.07
2019-04-04T12:07:26.531Z,65.22
2019-04-04T12:10:06.706Z,65.32
2019-04-04T12:12:25.236Z,65.10
2019-04-04T12:14:53.707Z,65.18
2019-04-04T12:17:22.208Z,65.06
2019-04-04T12:19:50.665Z,65.12
2019-04-04T12:22:19.152Z,65.34
2019-04-04T12:24:47.655Z,65.35
2019-04-04T12:27:16.126Z,65.35
2019-04-04T12:29:44.629Z,65.50
2019-04-04T12:32:13.105Z,65.62
2019-04-04T12:34:41.597Z,65.68
2019-04-04T12:37:10.389Z,65.62
2019-04-04T12:39:38.878Z,65.43
2019-04-04T12:42:07.346Z,65.52
2019-04-04T12:44:35.847Z,65.41
2019-04-04T12:47:04.324Z,65.29
2019-04-04T12:49:32.813Z,65.23
2019-04-04T12:52:01.301Z,65.26
2019-04-04T12:54:29.766Z,65.25
2019-04-04T12:56:58.251Z,65.29
2019-04-04T12:59:26.758Z,65.15
2019-04-04T13:01:55.252Z,64.96
2019-04-04T13:04:31.519Z,65.00
2019-04-04T13:06:53.963Z,65.28
2019-04-04T13:09:22.505Z,65.15
2019-04-04T13:11:50.986Z,65.21
2019-04-04T13:14:19.451Z,65.09
2019-04-04T13:16:47.984Z,64.97
2019-04-04T13:19:16.472Z,64.92
2019-04-04T13:21:45.292Z,64.71
2019-04-04T13:24:13.785Z,64.74
2019-04-04T13:26:42.288Z,64.96
2019-04-04T13:29:10.839Z,64.78
2019-04-04T13:31:39.291Z,64.65
2019-04-04T13:34:07.773Z,64.59
2019-04-04T13:36:36.864Z,64.54
2019-04-04T13:39:09.186Z,64.34
2019-04-04T13:41:37.717Z,64.20
2019-04-04T13:44:06.213Z,64.31
2019-04-04T13:46:34.674Z,64.32
2019-04-04T13:49:03.170Z,64.34
2019-04-04T13:51:31.685Z,64.42
2019-04-04T13:54:00.584Z,64.17
2019-04-04T13:56:29.435Z,63.82
2019-04-04T13:59:00.941Z,63.59
2019-04-04T14:01:28.153Z,63.64
2019-04-04T14:03:56.618Z,63.74
2019-04-04T14:06:25.422Z,63.86
2019-04-04T14:08:53.898Z,63.45
2019-04-04T14:11:22.376Z,62.80
2019-04-04T14:13:50.903Z,61.91
2019-04-04T14:16:19.377Z,62.75
2019-04-04T14:18:47.866Z,59.17
2019-04-04T14:21:16.326Z,56.13
2019-04-04T14:23:45.355Z,54.65
2019-04-04T14:26:14.287Z,53.96
2019-04-04T14:28:43.115Z,53.29
2019-04-04T14:31:11.598Z,53.38
2019-04-04T14:33:40.089Z,53.59
2019-04-04T14:36:08.606Z,53.54
2019-04-04T14:38:37.098Z,54.00
2019-04-04T14:41:11.396Z,54.35
2019-04-04T14:43:35.775Z,54.02
2019-04-04T14:46:04.511Z,54.06
2019-04-04T14:48:33.135Z,53.54
2019-04-04T14:51:01.649Z,53.17
2019-04-04T14:53:30.142Z,53.46
2019-04-04T14:55:58.642Z,53.75
2019-04-04T14:58:27.133Z,53.36
2019-04-04T15:00:55.716Z,52.96
2019-04-04T15:03:24.194Z,52.88
2019-04-04T15:05:52.697Z,52.91
2019-04-04T15:08:21.253Z,52.75
2019-04-04T15:10:49.698Z,52.70
2019-04-04T15:13:18.208Z,53.13
2019-04-04T15:16:10.288Z,53.53
2019-04-04T15:18:38.776Z,53.25
2019-04-04T15:21:07.479Z,53.24
2019-04-04T15:23:35.956Z,53.59
2019-04-04T15:26:04.551Z,54.06
2019-04-04T15:28:33.046Z,53.81
2019-04-04T15:31:01.530Z,53.66
2019-04-04T15:33:30.043Z,53.40
2019-04-04T15:35:58.551Z,53.45
2019-04-04T15:38:27.451Z,53.60
2019-04-04T15:40:55.935Z,53.55
2019-04-04T15:43:24.435Z,53.75
2019-04-04T15:45:52.930Z,53.62
2019-04-04T15:48:21.685Z,54.22
2019-04-04T15:50:50.171Z,54.59
2019-04-04T15:53:18.717Z,56.48
2019-04-04T15:55:47.212Z,58.00
2019-04-04T15:58:15.708Z,58.98
2019-04-04T16:00:44.389Z,59.52
2019-04-04T16:03:12.886Z,59.95
2019-04-04T16:05:41.357Z,60.19
2019-04-04T16:08:09.905Z,60.24
2019-04-04T16:10:38.398Z,60.21
2019-04-04T16:13:06.947Z,60.12
2019-04-04T16:15:35.414Z,60.15
2019-04-04T16:18:03.921Z,60.19
2019-04-04T16:20:32.398Z,60.13
2019-04-04T16:23:00.902Z,60.13
2019-04-04T16:25:29.407Z,60.13
2019-04-04T16:27:57.887Z,60.04
2019-04-04T16:30:26.360Z,60.10
2019-04-04T16:32:55.090Z,60.08
2019-04-04T16:35:23.859Z,60.12
2019-04-04T16:37:52.580Z,60.21
2019-04-04T16:40:21.045Z,60.30
2019-04-04T16:42:49.539Z,60.38
2019-04-04T16:45:19.261Z,60.48
2019-04-04T16:47:48.036Z,60.56
2019-04-04T16:50:16.547Z,60.73
2019-04-04T16:52:45.026Z,60.87
2019-04-04T16:55:13.497Z,60.99
2019-04-04T16:57:43.545Z,61.24
2019-04-04T17:00:12.220Z,61.43
2019-04-04T17:02:40.764Z,61.58
2019-04-04T17:05:11.086Z,61.67
2019-04-04T17:07:40.055Z,62.36
2019-04-04T17:10:09.597Z,58.39
2019-04-04T17:12:38.350Z,56.42
2019-04-04T17:15:07.086Z,55.79
2019-04-04T17:17:35.655Z,55.99
2019-04-04T17:20:05.067Z,55.65
2019-04-04T17:22:33.559Z,57.68
2019-04-04T17:25:02.042Z,60.32
2019-04-04T17:27:30.524Z,61.73
2019-04-04T17:29:59.056Z,62.75
2019-04-04T17:32:27.471Z,63.31
2019-04-04T17:34:55.944Z,63.79
2019-04-04T17:37:24.421Z,64.09
2019-04-04T17:39:53.327Z,64.51
2019-04-04T17:42:28.975Z,64.80
2019-04-04T17:44:52.617Z,64.18
2019-04-04T17:47:21.325Z,60.73
2019-04-04T17:49:50.241Z,60.22
2019-04-04T17:52:18.821Z,59.64
2019-04-04T17:54:47.710Z,61.20
2019-04-04T17:57:16.804Z,60.57
2019-04-04T17:59:45.270Z,58.00
2019-04-04T18:02:13.745Z,56.14
2019-04-04T18:04:48.216Z,56.72
2019-04-04T18:07:12.845Z,59.90
2019-04-04T18:09:41.351Z,62.34
2019-04-04T18:12:09.918Z,64.04
2019-04-04T18:14:38.382Z,65.00
2019-04-04T18:17:06.847Z,65.52
2019-04-04T18:19:35.860Z,65.97
2019-04-04T18:22:04.643Z,66.23
2019-04-04T18:24:33.389Z,66.61
2019-04-04T18:27:01.927Z,66.61
2019-04-04T18:29:30.378Z,66.92
2019-04-04T18:31:58.873Z,66.85
2019-04-04T18:34:27.335Z,66.91
2019-04-04T18:36:55.795Z,67.01
2019-04-04T18:39:26.459Z,66.99
2019-04-04T18:41:54.519Z,65.78
2019-04-04T18:44:23.013Z,65.61
2019-04-04T18:46:51.453Z,65.77
2019-04-04T18:49:19.972Z,65.55
2019-04-04T18:51:48.526Z,66.00
2019-04-04T18:54:17.113Z,65.87
2019-04-04T18:56:45.596Z,65.85
2019-04-04T18:59:14.094Z,66.09
2019-04-04T19:01:42.593Z,66.50
2019-04-04T19:04:11.098Z,66.34
2019-04-04T19:06:39.571Z,66.50
2019-04-04T19:09:15.240Z,66.36
2019-04-04T19:11:40.939Z,66.32
2019-04-04T19:14:09.485Z,66.34
2019-04-04T19:16:38.001Z,66.26
2019-04-04T19:19:06.479Z,66.46
2019-04-04T19:21:34.962Z,66.62
2019-04-04T19:24:03.455Z,66.58
2019-04-04T19:26:31.945Z,66.62
2019-04-04T19:29:00.480Z,66.79
2019-04-04T19:31:28.936Z,66.64
2019-04-04T19:33:57.739Z,66.66
2019-04-04T19:36:26.228Z,66.67
2019-04-04T19:38:54.701Z,67.01
2019-04-04T19:41:23.160Z,67.51
2019-04-04T19:43:51.712Z,67.91
2019-04-04T19:46:20.201Z,67.90
2019-04-04T19:48:48.674Z,67.33
2019-04-04T19:51:17.608Z,67.64
2019-04-04T19:53:46.116Z,68.15
2019-04-04T19:56:14.607Z,68.54
2019-04-04T19:58:43.193Z,68.60
2019-04-04T20:01:11.734Z,68.64
2019-04-04T20:03:40.178Z,68.70
2019-04-04T20:06:08.677Z,68.65
2019-04-04T20:08:37.544Z,68.57
2019-04-04T20:11:06.139Z,68.68
2019-04-04T20:13:34.631Z,68.79
2019-04-04T20:16:03.146Z,68.72
2019-04-04T20:18:31.927Z,68.82
2019-04-04T20:21:00.402Z,69.07
2019-04-04T20:23:28.845Z,69.21
2019-04-04T20:25:57.330Z,69.26
2019-04-04T20:28:25.803Z,69.35
2019-04-04T20:30:54.671Z,69.28
2019-04-04T20:33:23.163Z,69.44
2019-04-04T20:35:51.632Z,69.42
2019-04-04T20:38:20.132Z,69.49
2019-04-04T20:40:48.615Z,69.51
2019-04-04T20:43:17.075Z,69.49
2019-04-04T20:45:45.562Z,69.50
2019-04-04T20:48:14.028Z,69.63
2019-04-04T20:50:42.621Z,69.72
2019-04-04T20:53:11.121Z,69.79
2019-04-04T20:55:39.593Z,69.98
2019-04-04T20:58:08.073Z,69.98
2019-04-04T21:00:36.551Z,70.13
2019-04-04T21:03:05.315Z,70.07
2019-04-04T21:05:34.079Z,70.08
2019-04-04T21:08:02.583Z,70.20
2019-04-04T21:10:31.035Z,70.18
2019-04-04T21:12:59.809Z,70.31
2019-04-04T21:15:28.713Z,70.34
2019-04-04T21:17:57.214Z,70.31
2019-04-04T21:20:25.814Z,70.16
2019-04-04T21:22:54.378Z,70.17
2019-04-04T21:25:22.874Z,70.15
2019-04-04T21:27:51.329Z,70.26
2019-04-04T21:30:19.819Z,70.38
2019-04-04T21:32:48.295Z,70.38
2019-04-04T21:35:16.804Z,70.42
2019-04-04T21:37:45.270Z,70.26
2019-04-04T21:40:13.761Z,70.38
2019-04-04T21:42:42.278Z,70.47
2019-04-04T21:45:10.806Z,70.53
2019-04-04T21:47:39.299Z,70.67
2019-04-04T21:50:08.056Z,70.82
2019-04-04T21:52:36.605Z,70.79
2019-04-04T21:55:05.204Z,70.85
2019-04-04T21:57:33.731Z,70.85
2019-04-04T22:00:02.274Z,71.07
2019-04-04T22:02:30.831Z,71.03
2019-04-04T22:04:59.554Z,71.14
2019-04-04T22:07:28.121Z,71.05
2019-04-04T22:09:56.587Z,71.10
2019-04-04T22:12:25.071Z,70.73
2019-04-04T22:14:53.550Z,70.99
2019-04-04T22:17:22.121Z,71.12
2019-04-04T22:19:50.614Z,71.01
2019-04-04T22:22:20.394Z,71.10
2019-04-04T22:24:49.169Z,70.79
2019-04-04T22:27:17.656Z,70.93
2019-04-04T22:29:46.252Z,70.97
2019-04-04T22:32:14.722Z,71.09
2019-04-04T22:34:43.508Z,71.12
2019-04-04T22:37:11.961Z,71.09
2019-04-04T22:39:40.501Z,71.04
2019-04-04T22:42:08.971Z,71.33
2019-04-04T22:44:37.463Z,71.50
2019-04-04T22:47:05.943Z,71.82
2019-04-04T22:49:34.454Z,71.75
2019-04-04T22:52:02.932Z,71.66
2019-04-04T22:54:31.399Z,71.53
2019-04-04T22:56:59.892Z,71.63
2019-04-04T22:59:28.394Z,71.94
2019-04-04T23:01:57.184Z,71.79
2019-04-04T23:04:25.637Z,71.48
2019-04-04T23:06:54.118Z,71.34
2019-04-04T23:09:22.571Z,71.66
2019-04-04T23:11:51.061Z,72.63
2019-04-04T23:14:19.582Z,71.84
2019-04-04T23:16:48.368Z,72.12
2019-04-04T23:19:16.858Z,71.85
2019-04-04T23:21:45.346Z,71.97
2019-04-04T23:24:13.780Z,72.00
2019-04-04T23:26:42.261Z,72.17
2019-04-04T23:29:10.773Z,71.88
2019-04-04T23:31:39.235Z,71.75
2019-04-04T23:34:07.727Z,71.94
2019-04-04T23:36:36.241Z,72.29
2019-04-04T23:39:06.694Z,72.15
2019-04-04T23:41:35.437Z,72.26
2019-04-04T23:44:03.918Z,72.21
2019-04-04T23:46:32.390Z,72.49
2019-04-04T23:49:00.869Z,72.72
2019-04-04T23:51:29.419Z,72.46
2019-04-04T23:53:57.906Z,72.49
2019-04-04T23:56:26.395Z,72.83
2019-04-04T23:58:54.878Z,72.90
